createdAt,value
2019-03-25T00:01:54.825Z,50.00
2019-03-25T00:04:25.416Z,49.73
2019-03-25T00:06:55.768Z,49.65
2019-03-25T00:09:26.131Z,49.64
2019-03-25T00:11:56.516Z,49.61
2019-03-25T00:14:26.882Z,49.90
2019-03-25T00:16:57.232Z,49.75
2019-03-25T00:19:27.591Z,49.97
2019-03-25T00:21:58.063Z,49.94
2019-03-25T00:24:38.144Z,50.02
2019-03-25T00:27:00.462Z,49.80
2019-03-25T00:29:30.814Z,49.47
2019-03-25T00:32:01.247Z,49.87
2019-03-25T00:34:31.608Z,49.89
2019-03-25T00:37:02.009Z,49.41
2019-03-25T00:39:32.390Z,49.53
2019-03-25T00:42:02.756Z,49.80
2019-03-25T00:44:33.182Z,49.58
2019-03-25T00:47:03.537Z,49.96
2019-03-25T00:49:33.908Z,49.66
2019-03-25T00:52:04.293Z,49.63
2019-03-25T00:54:34.682Z,49.62
2019-03-25T00:57:05.060Z,49.36
2019-03-25T00:59:35.418Z,49.79
2019-03-25T01:02:05.788Z,49.94
2019-03-25T01:04:36.170Z,50.08
2019-03-25T01:07:06.528Z,50.32
2019-03-25T01:09:36.895Z,50.54
2019-03-25T01:12:07.243Z,50.35
2019-03-25T01:14:37.608Z,50.70
2019-03-25T01:17:07.957Z,50.91
2019-03-25T01:19:39.384Z,50.75
2019-03-25T01:22:09.734Z,50.42
2019-03-25T01:24:40.108Z,50.99
2019-03-25T01:27:10.496Z,50.84
2019-03-25T01:29:40.886Z,50.59
2019-03-25T01:32:11.246Z,50.49
2019-03-25T01:34:41.609Z,50.35
2019-03-25T01:37:12.014Z,50.62
2019-03-25T01:39:42.361Z,50.81
2019-03-25T01:42:12.809Z,50.50
2019-03-25T01:44:43.172Z,50.25
2019-03-25T01:47:13.542Z,50.32
2019-03-25T01:49:43.915Z,50.41
2019-03-25T01:52:14.329Z,50.04
2019-03-25T01:54:44.666Z,50.37
2019-03-25T01:57:15.148Z,50.57
2019-03-25T01:59:45.521Z,50.36
2019-03-25T02:02:16.957Z,50.43
2019-03-25T02:04:47.326Z,50.34
2019-03-25T02:07:17.672Z,50.32
2019-03-25T02:09:48.044Z,50.43
2019-03-25T02:12:18.403Z,50.21
2019-03-25T02:14:49.851Z,50.09
2019-03-25T02:17:20.300Z,50.09
2019-03-25T02:19:50.677Z,50.11
2019-03-25T02:22:21.101Z,50.28
2019-03-25T02:24:51.448Z,50.49
2019-03-25T02:27:21.841Z,50.42
2019-03-25T02:29:52.196Z,50.46
2019-03-25T02:32:22.665Z,50.55
2019-03-25T02:34:53.029Z,50.70
2019-03-25T02:37:23.560Z,50.61
2019-03-25T02:39:53.913Z,50.16
2019-03-25T02:42:24.279Z,50.50
2019-03-25T02:44:54.657Z,50.07
2019-03-25T02:47:25.063Z,49.91
2019-03-25T02:49:55.419Z,49.94
2019-03-25T02:52:25.797Z,49.96
2019-03-25T02:54:56.167Z,50.27
2019-03-25T02:57:26.546Z,50.63
2019-03-25T02:59:56.912Z,50.96
2019-03-25T03:02:27.263Z,51.28
2019-03-25T03:04:57.638Z,51.45
2019-03-25T03:07:28.037Z,51.49
2019-03-25T03:09:58.422Z,51.64
2019-03-25T03:12:28.795Z,51.40
2019-03-25T03:14:59.164Z,51.76
2019-03-25T03:17:30.325Z,52.00
2019-03-25T03:20:00.674Z,51.92
2019-03-25T03:22:31.037Z,51.61
2019-03-25T03:25:01.387Z,51.38
2019-03-25T03:27:31.735Z,52.41
2019-03-25T03:30:02.298Z,52.20
2019-03-25T03:32:33.725Z,51.93
2019-03-25T03:35:05.919Z,51.59
2019-03-25T03:37:36.289Z,51.52
2019-03-25T03:40:06.660Z,50.93
2019-03-25T03:42:37.034Z,50.96
2019-03-25T03:45:07.595Z,51.24
2019-03-25T03:47:37.992Z,51.01
2019-03-25T03:50:09.502Z,51.30
2019-03-25T03:52:39.925Z,50.71
2019-03-25T03:55:13.057Z,50.75
2019-03-25T03:57:43.414Z,50.72
2019-03-25T04:00:25.718Z,51.00
2019-03-25T04:02:56.102Z,50.75
2019-03-25T04:05:26.469Z,50.77
2019-03-25T04:07:56.813Z,50.73
2019-03-25T04:10:27.578Z,50.98
2019-03-25T04:12:57.976Z,51.00
2019-03-25T04:15:30.096Z,50.85
2019-03-25T04:18:00.449Z,50.87
2019-03-25T04:20:30.806Z,51.13
2019-03-25T04:23:01.188Z,51.16
2019-03-25T04:25:31.576Z,51.31
2019-03-25T04:28:01.944Z,50.94
2019-03-25T04:30:32.292Z,51.34
2019-03-25T04:33:02.668Z,51.01
2019-03-25T04:35:33.170Z,51.36
2019-03-25T04:38:04.352Z,51.31
2019-03-25T04:40:34.700Z,51.15
2019-03-25T04:43:05.075Z,51.09
2019-03-25T04:45:35.466Z,51.54
2019-03-25T04:48:06.922Z,51.21
2019-03-25T04:50:37.343Z,51.25
2019-03-25T04:53:07.693Z,50.91
2019-03-25T04:55:38.046Z,51.22
2019-03-25T04:58:08.418Z,52.06
2019-03-25T05:00:38.772Z,52.79
2019-03-25T05:03:09.143Z,51.64
2019-03-25T05:05:39.523Z,51.95
2019-03-25T05:08:09.894Z,53.70
2019-03-25T05:10:40.249Z,54.05
2019-03-25T05:13:10.609Z,53.62
2019-03-25T05:15:40.970Z,52.68
2019-03-25T05:18:11.324Z,51.86
2019-03-25T05:20:41.694Z,51.43
2019-03-25T05:23:12.071Z,51.23
2019-03-25T05:25:42.448Z,50.99
2019-03-25T05:28:12.811Z,51.18
2019-03-25T05:30:43.173Z,50.84
2019-03-25T05:33:13.549Z,50.75
2019-03-25T05:35:43.896Z,50.62
2019-03-25T05:38:14.248Z,50.86
2019-03-25T05:40:44.603Z,50.41
2019-03-25T05:43:14.974Z,50.66
2019-03-25T05:45:45.346Z,50.42
2019-03-25T05:48:15.897Z,50.98
2019-03-25T05:50:46.260Z,50.72
2019-03-25T05:53:16.771Z,50.98
2019-03-25T05:55:47.112Z,51.32
2019-03-25T05:58:17.541Z,51.57
2019-03-25T06:00:47.934Z,52.09
2019-03-25T06:03:18.580Z,52.83
2019-03-25T06:05:48.949Z,53.18
2019-03-25T06:08:22.389Z,53.66
2019-03-25T06:10:53.128Z,52.61
2019-03-25T06:13:23.507Z,51.66
2019-03-25T06:15:53.905Z,51.25
2019-03-25T06:18:24.271Z,51.50
2019-03-25T06:20:55.282Z,51.28
2019-03-25T06:23:26.464Z,51.41
2019-03-25T06:25:57.609Z,51.55
2019-03-25T06:28:28.056Z,51.70
2019-03-25T06:30:58.616Z,51.84
2019-03-25T06:33:28.989Z,52.39
2019-03-25T06:35:59.700Z,54.46
2019-03-25T06:38:33.384Z,56.10
2019-03-25T06:41:06.413Z,55.63
2019-03-25T06:43:38.435Z,56.79
2019-03-25T06:46:08.827Z,56.90
2019-03-25T06:48:39.356Z,56.25
2019-03-25T06:51:10.777Z,55.56
2019-03-25T06:53:41.277Z,55.61
2019-03-25T06:56:11.628Z,54.02
2019-03-25T06:58:42.010Z,53.65
2019-03-25T07:01:12.362Z,52.88
2019-03-25T07:03:42.747Z,52.73
2019-03-25T07:06:13.157Z,53.23
2019-03-25T07:08:43.545Z,53.12
2019-03-25T07:11:13.950Z,53.68
2019-03-25T07:13:44.295Z,53.00
2019-03-25T07:16:15.303Z,52.79
2019-03-25T07:18:45.704Z,52.80
2019-03-25T07:21:16.839Z,54.04
2019-03-25T07:23:47.450Z,54.19
2019-03-25T07:26:17.811Z,53.33
2019-03-25T07:28:48.233Z,53.20
2019-03-25T07:31:18.611Z,52.74
2019-03-25T07:33:48.974Z,53.04
2019-03-25T07:36:20.488Z,53.56
2019-03-25T07:38:51.108Z,53.94
2019-03-25T07:41:21.462Z,53.60
2019-03-25T07:43:51.892Z,53.61
2019-03-25T07:46:22.187Z,52.92
2019-03-25T07:48:52.620Z,52.56
2019-03-25T07:51:22.971Z,51.06
2019-03-25T07:53:53.346Z,51.00
2019-03-25T07:56:23.790Z,49.86
2019-03-25T07:58:54.161Z,49.19
2019-03-25T08:01:24.566Z,49.34
2019-03-25T08:03:55.029Z,47.91
2019-03-25T08:06:25.403Z,47.57
2019-03-25T08:09:03.664Z,47.45
2019-03-25T08:11:28.503Z,46.72
2019-03-25T08:13:58.947Z,46.30
2019-03-25T08:16:29.309Z,47.40
2019-03-25T08:18:59.684Z,48.04
2019-03-25T08:21:30.128Z,48.49
2019-03-25T08:24:00.486Z,48.12
2019-03-25T08:26:30.906Z,48.20
2019-03-25T08:29:01.263Z,48.90
2019-03-25T08:31:31.693Z,49.13
2019-03-25T08:34:02.678Z,49.21
2019-03-25T08:36:33.394Z,48.60
2019-03-25T08:39:05.627Z,46.44
2019-03-25T08:41:36.742Z,46.30
2019-03-25T08:44:07.824Z,45.16
2019-03-25T08:46:38.956Z,46.45
2019-03-25T08:49:11.939Z,45.92
2019-03-25T08:51:42.079Z,46.42
2019-03-25T08:54:12.435Z,46.09
2019-03-25T08:56:42.860Z,45.66
2019-03-25T08:59:13.269Z,46.66
2019-03-25T09:01:43.718Z,44.90
2019-03-25T09:04:14.090Z,45.04
2019-03-25T09:06:44.469Z,46.34
2019-03-25T09:09:14.851Z,45.46
2019-03-25T09:11:45.260Z,45.84
2019-03-25T09:14:15.636Z,45.96
2019-03-25T09:16:46.007Z,46.55
2019-03-25T09:19:16.410Z,45.68
2019-03-25T09:21:46.765Z,44.44
2019-03-25T09:24:17.130Z,43.80
2019-03-25T09:26:47.522Z,43.31
2019-03-25T09:29:20.231Z,43.20
2019-03-25T09:31:51.363Z,41.94
2019-03-25T09:34:21.710Z,41.84
2019-03-25T09:36:52.099Z,41.30
2019-03-25T09:39:22.492Z,42.47
2019-03-25T09:41:52.900Z,42.49
2019-03-25T09:44:23.258Z,41.16
2019-03-25T09:46:53.637Z,40.64
2019-03-25T09:49:24.215Z,40.25
2019-03-25T09:51:54.569Z,38.47
2019-03-25T09:54:25.039Z,39.76
2019-03-25T09:56:55.832Z,40.26
2019-03-25T09:59:26.222Z,40.03
2019-03-25T10:01:57.069Z,39.08
2019-03-25T10:04:27.544Z,38.72
2019-03-25T10:06:57.943Z,38.08
2019-03-25T10:09:28.320Z,38.40
2019-03-25T10:11:58.709Z,37.36
2019-03-25T10:14:29.098Z,37.58
2019-03-25T10:16:59.870Z,36.94
2019-03-25T10:19:30.328Z,35.98
2019-03-25T10:22:00.816Z,36.74
2019-03-25T10:24:31.177Z,37.35
2019-03-25T10:27:01.534Z,38.09
2019-03-25T10:29:32.113Z,38.73
2019-03-25T10:32:02.593Z,39.82
2019-03-25T10:34:32.961Z,39.44
2019-03-25T10:37:03.320Z,39.79
2019-03-25T10:39:33.689Z,40.48
2019-03-25T10:42:04.084Z,40.33
2019-03-25T10:44:34.464Z,40.13
2019-03-25T10:47:04.837Z,40.72
2019-03-25T10:49:35.225Z,41.57
2019-03-25T10:52:05.600Z,41.93
2019-03-25T10:54:36.123Z,41.70
2019-03-25T10:57:06.568Z,42.32
2019-03-25T10:59:37.940Z,43.41
2019-03-25T11:02:08.323Z,43.46
2019-03-25T11:04:38.673Z,44.26
2019-03-25T11:07:09.118Z,43.82
2019-03-25T11:09:39.578Z,44.95
2019-03-25T11:12:10.374Z,44.21
2019-03-25T11:14:40.748Z,44.93
2019-03-25T11:17:11.119Z,45.03
2019-03-25T11:19:41.495Z,46.01
2019-03-25T11:22:11.834Z,47.97
2019-03-25T11:24:42.241Z,48.90
2019-03-25T11:27:12.624Z,49.60
2019-03-25T11:29:43.204Z,51.01
2019-03-25T11:32:13.562Z,52.13
2019-03-25T11:34:43.929Z,52.54
2019-03-25T11:37:14.295Z,53.38
2019-03-25T11:39:44.844Z,53.70
2019-03-25T11:42:15.212Z,53.79
2019-03-25T11:44:45.549Z,54.73
2019-03-25T11:47:15.902Z,54.89
2019-03-25T11:49:46.408Z,56.25
2019-03-25T11:52:16.887Z,57.60
2019-03-25T11:54:47.301Z,60.23
2019-03-25T11:57:17.650Z,61.64
2019-03-25T11:59:48.002Z,63.18
2019-03-25T12:02:18.388Z,63.64
2019-03-25T12:04:48.751Z,63.46
2019-03-25T12:07:20.204Z,63.45
2019-03-25T12:09:50.552Z,64.17
2019-03-25T12:12:20.881Z,65.40
2019-03-25T12:14:51.223Z,65.38
2019-03-25T12:17:21.658Z,66.33
2019-03-25T12:19:52.003Z,65.25
2019-03-25T12:22:22.340Z,64.97
2019-03-25T12:24:52.678Z,64.23
2019-03-25T12:27:23.082Z,64.39
2019-03-25T12:29:53.481Z,62.92
2019-03-25T12:32:23.885Z,64.12
2019-03-25T12:34:54.253Z,64.35
2019-03-25T12:37:24.606Z,65.16
2019-03-25T12:39:54.955Z,64.81
2019-03-25T12:42:25.301Z,66.01
2019-03-25T12:44:55.648Z,65.63
2019-03-25T12:47:26.056Z,65.61
2019-03-25T12:49:56.405Z,66.43
2019-03-25T12:52:26.799Z,66.37
2019-03-25T12:54:57.156Z,66.28
2019-03-25T12:57:28.089Z,65.90
2019-03-25T12:59:58.458Z,65.19
2019-03-25T13:02:28.835Z,65.71
2019-03-25T13:04:59.199Z,64.74
2019-03-25T13:07:30.500Z,65.34
2019-03-25T13:10:00.871Z,65.32
2019-03-25T13:12:34.270Z,65.96
2019-03-25T13:15:08.676Z,66.95
2019-03-25T13:17:39.041Z,67.21
2019-03-25T13:20:09.461Z,67.07
2019-03-25T13:22:40.018Z,65.12
2019-03-25T13:25:10.367Z,66.36
2019-03-25T13:27:40.717Z,66.39
2019-03-25T13:30:15.754Z,66.72
2019-03-25T13:32:44.816Z,66.60
2019-03-25T13:35:15.212Z,67.22
2019-03-25T13:37:45.544Z,68.19
2019-03-25T13:40:15.895Z,66.56
2019-03-25T13:42:46.276Z,66.89
2019-03-25T13:45:16.638Z,66.38
2019-03-25T13:47:46.996Z,66.30
2019-03-25T13:50:17.352Z,65.76
2019-03-25T13:52:47.724Z,66.05
2019-03-25T13:55:18.075Z,65.82
2019-03-25T13:57:48.456Z,64.72
2019-03-25T14:00:22.074Z,65.24
2019-03-25T14:02:52.479Z,64.92
2019-03-25T14:05:23.147Z,64.98
2019-03-25T14:07:53.508Z,65.10
2019-03-25T14:10:23.870Z,64.91
2019-03-25T14:12:54.215Z,67.67
2019-03-25T14:15:24.585Z,68.45
2019-03-25T14:17:54.960Z,67.77
2019-03-25T14:20:28.183Z,66.22
2019-03-25T14:22:58.534Z,65.74
2019-03-25T14:25:28.882Z,66.86
2019-03-25T14:27:59.335Z,65.08
2019-03-25T14:30:29.995Z,65.01
2019-03-25T14:33:01.386Z,65.29
2019-03-25T14:35:31.762Z,64.77
2019-03-25T14:38:04.394Z,63.83
2019-03-25T14:40:34.882Z,64.50
2019-03-25T14:43:05.223Z,64.35
2019-03-25T14:45:35.618Z,64.35
2019-03-25T14:48:05.977Z,64.01
2019-03-25T14:50:38.039Z,63.65
2019-03-25T14:53:08.382Z,63.10
2019-03-25T14:55:38.743Z,62.12
2019-03-25T14:58:09.140Z,63.45
2019-03-25T15:00:39.498Z,63.39
2019-03-25T15:03:11.291Z,64.13
2019-03-25T15:05:42.668Z,66.56
2019-03-25T15:08:13.068Z,67.22
2019-03-25T15:10:53.180Z,68.54
2019-03-25T15:13:15.712Z,70.54
2019-03-25T15:15:46.198Z,69.83
2019-03-25T15:18:16.602Z,69.83
2019-03-25T15:20:48.026Z,67.87
2019-03-25T15:23:18.518Z,67.92
2019-03-25T15:25:48.879Z,67.29
2019-03-25T15:28:20.226Z,68.12
2019-03-25T15:30:50.620Z,67.07
2019-03-25T15:33:22.429Z,66.69
2019-03-25T15:35:53.751Z,65.18
2019-03-25T15:38:25.517Z,64.59
2019-03-25T15:40:56.093Z,64.13
2019-03-25T15:43:26.463Z,64.40
2019-03-25T15:45:56.818Z,66.16
2019-03-25T15:48:27.943Z,66.28
2019-03-25T15:50:58.307Z,65.68
2019-03-25T15:53:28.908Z,64.57
2019-03-25T15:55:59.306Z,65.33
2019-03-25T15:58:29.909Z,65.94
2019-03-25T16:01:01.537Z,66.73
2019-03-25T16:03:31.900Z,66.47
2019-03-25T16:06:02.255Z,65.70
2019-03-25T16:08:32.884Z,66.03
2019-03-25T16:11:03.317Z,65.67
2019-03-25T16:13:33.687Z,65.67
2019-03-25T16:16:04.077Z,65.80
2019-03-25T16:18:39.415Z,66.43
2019-03-25T16:21:10.156Z,66.78
2019-03-25T16:23:40.491Z,65.46
2019-03-25T16:26:10.848Z,65.48
2019-03-25T16:28:41.205Z,66.19
2019-03-25T16:31:12.647Z,66.46
2019-03-25T16:33:43.043Z,66.33
2019-03-25T16:36:13.521Z,66.64
2019-03-25T16:38:44.196Z,66.24
2019-03-25T16:41:16.890Z,67.17
2019-03-25T16:43:48.256Z,67.88
2019-03-25T16:46:18.794Z,66.94
2019-03-25T16:48:50.251Z,66.56
2019-03-25T16:51:20.767Z,66.90
2019-03-25T16:54:09.315Z,66.99
2019-03-25T16:56:39.696Z,66.48
2019-03-25T16:59:10.069Z,66.01
2019-03-25T17:01:40.784Z,66.55
2019-03-25T17:04:11.179Z,66.25
2019-03-25T17:06:42.998Z,66.10
2019-03-25T17:09:13.385Z,66.06
2019-03-25T17:11:44.837Z,66.30
2019-03-25T17:14:15.234Z,66.67
2019-03-25T17:16:46.357Z,66.90
2019-03-25T17:19:16.712Z,66.33
2019-03-25T17:21:57.712Z,66.73
2019-03-25T17:24:19.566Z,67.04
2019-03-25T17:26:50.193Z,67.16
2019-03-25T17:29:22.399Z,66.98
2019-03-25T17:31:53.194Z,66.71
2019-03-25T17:34:23.883Z,66.83
2019-03-25T17:36:54.381Z,68.22
2019-03-25T17:39:26.916Z,67.35
2019-03-25T17:41:57.482Z,67.94
2019-03-25T17:44:28.345Z,67.66
2019-03-25T17:46:58.730Z,68.11
2019-03-25T17:49:29.258Z,68.16
2019-03-25T17:52:01.182Z,68.87
2019-03-25T17:54:34.430Z,68.96
2019-03-25T17:57:04.851Z,69.75
2019-03-25T17:59:35.702Z,69.56
2019-03-25T18:02:06.104Z,70.07
2019-03-25T18:04:36.471Z,69.88
2019-03-25T18:07:06.967Z,70.43
2019-03-25T18:09:37.346Z,69.89
2019-03-25T18:12:07.794Z,68.39
2019-03-25T18:14:41.406Z,68.93
2019-03-25T18:17:13.228Z,68.06
2019-03-25T18:19:43.604Z,67.09
2019-03-25T18:22:14.296Z,67.12
2019-03-25T18:24:44.693Z,68.31
2019-03-25T18:27:15.017Z,68.26
2019-03-25T18:29:45.436Z,68.95
2019-03-25T18:32:15.997Z,69.03
2019-03-25T18:34:46.381Z,67.67
2019-03-25T18:37:16.751Z,68.59
2019-03-25T18:39:48.595Z,68.77
2019-03-25T18:42:21.746Z,68.67
2019-03-25T18:44:52.259Z,67.92
2019-03-25T18:47:22.715Z,68.53
2019-03-25T18:49:54.191Z,68.33
2019-03-25T18:52:25.641Z,68.43
2019-03-25T18:54:56.057Z,68.57
2019-03-25T18:57:26.405Z,69.16
2019-03-25T18:59:57.761Z,68.31
2019-03-25T19:02:28.754Z,68.69
2019-03-25T19:05:00.436Z,69.14
2019-03-25T19:07:32.915Z,68.50
2019-03-25T19:10:03.895Z,67.27
2019-03-25T19:12:34.291Z,67.19
2019-03-25T19:15:07.714Z,66.77
2019-03-25T19:17:38.560Z,66.61
2019-03-25T19:20:09.072Z,67.19
2019-03-25T19:22:39.892Z,66.94
2019-03-25T19:25:13.374Z,68.88
2019-03-25T19:27:43.761Z,69.14
2019-03-25T19:30:16.012Z,69.13
2019-03-25T19:32:46.409Z,68.90
2019-03-25T19:35:18.464Z,68.18
2019-03-25T19:37:48.822Z,68.96
2019-03-25T19:40:19.253Z,68.91
2019-03-25T19:42:51.273Z,68.90
2019-03-25T19:45:22.168Z,69.26
2019-03-25T19:47:56.075Z,68.80
2019-03-25T19:50:27.151Z,67.96
2019-03-25T19:52:58.918Z,66.67
2019-03-25T19:55:29.287Z,66.33
2019-03-25T19:58:02.466Z,65.85
2019-03-25T20:00:38.769Z,66.36
2019-03-25T20:03:09.252Z,66.10
2019-03-25T20:05:40.032Z,66.57
2019-03-25T20:08:10.375Z,67.14
2019-03-25T20:10:40.767Z,67.82
2019-03-25T20:13:12.157Z,67.81
2019-03-25T20:15:46.610Z,68.22
2019-03-25T20:18:16.137Z,68.45
2019-03-25T20:20:47.597Z,67.80
2019-03-25T20:23:19.004Z,69.06
2019-03-25T20:25:50.966Z,69.59
2019-03-25T20:28:22.141Z,69.44
2019-03-25T20:30:52.796Z,69.88
2019-03-25T20:33:23.566Z,70.09
2019-03-25T20:35:54.304Z,70.49
2019-03-25T20:38:25.457Z,70.96
2019-03-25T20:40:58.110Z,71.79
2019-03-25T20:43:30.239Z,70.23
2019-03-25T20:46:01.772Z,71.47
2019-03-25T20:48:33.601Z,70.31
2019-03-25T20:51:04.021Z,71.33
2019-03-25T20:53:34.571Z,70.33
2019-03-25T20:56:07.344Z,70.42
2019-03-25T20:58:37.884Z,71.38
2019-03-25T21:01:08.530Z,69.31
2019-03-25T21:03:40.570Z,68.85
2019-03-25T21:06:11.259Z,69.16
2019-03-25T21:08:42.068Z,70.76
2019-03-25T21:11:13.144Z,70.90
2019-03-25T21:13:43.963Z,71.18
2019-03-25T21:16:14.761Z,70.19
2019-03-25T21:18:45.144Z,69.48
2019-03-25T21:21:15.586Z,68.67
2019-03-25T21:23:45.939Z,69.12
2019-03-25T21:26:16.722Z,68.49
2019-03-25T21:28:48.827Z,69.48
2019-03-25T21:31:19.948Z,68.72
2019-03-25T21:33:51.982Z,69.08
2019-03-25T21:36:22.331Z,69.58
2019-03-25T21:38:53.212Z,69.36
2019-03-25T21:41:23.776Z,68.77
2019-03-25T21:43:54.154Z,69.66
2019-03-25T21:46:24.632Z,68.47
2019-03-25T21:48:55.014Z,69.38
2019-03-25T21:51:27.038Z,69.35
2019-03-25T21:53:59.164Z,68.99
2019-03-25T21:56:29.895Z,69.27
2019-03-25T21:59:00.527Z,68.43
2019-03-25T22:01:31.016Z,68.17
2019-03-25T22:04:01.372Z,67.25
2019-03-25T22:06:31.723Z,66.87
2019-03-25T22:09:02.087Z,66.80
2019-03-25T22:11:32.670Z,65.60
2019-03-25T22:14:04.156Z,65.13
2019-03-25T22:16:34.531Z,66.32
2019-03-25T22:19:04.883Z,66.78
2019-03-25T22:21:35.455Z,66.89
2019-03-25T22:24:05.837Z,66.39
2019-03-25T22:26:37.279Z,65.33
2019-03-25T22:29:07.731Z,65.28
2019-03-25T22:31:38.066Z,64.40
2019-03-25T22:34:08.403Z,64.56
2019-03-25T22:36:38.838Z,63.87
2019-03-25T22:39:09.186Z,63.75
2019-03-25T22:41:39.553Z,63.32
2019-03-25T22:44:10.992Z,63.71
2019-03-25T22:46:41.347Z,64.19
2019-03-25T22:49:11.708Z,63.08
2019-03-25T22:51:42.959Z,62.57
2019-03-25T22:54:13.330Z,61.93
2019-03-25T22:56:44.764Z,62.44
2019-03-25T22:59:15.153Z,62.14
2019-03-25T23:01:45.814Z,62.19
2019-03-25T23:04:16.171Z,61.88
2019-03-25T23:06:46.534Z,62.39
2019-03-25T23:09:16.886Z,62.08
2019-03-25T23:11:47.246Z,62.04
2019-03-25T23:14:17.672Z,62.13
2019-03-25T23:16:48.041Z,62.72
2019-03-25T23:19:18.391Z,62.55
2019-03-25T23:21:48.752Z,62.35
2019-03-25T23:24:19.112Z,63.03
2019-03-25T23:26:49.538Z,63.49
2019-03-25T23:29:19.873Z,63.34
2019-03-25T23:31:50.228Z,63.46
2019-03-25T23:34:20.571Z,64.29
2019-03-25T23:36:52.348Z,65.15
2019-03-25T23:39:25.109Z,64.96
2019-03-25T23:41:54.760Z,65.56
2019-03-25T23:44:25.110Z,66.85
2019-03-25T23:46:55.455Z,65.51
2019-03-25T23:49:25.798Z,66.00
2019-03-25T23:51:56.163Z,65.54
2019-03-25T23:54:26.537Z,64.92
2019-03-25T23:56:56.913Z,64.42
2019-03-25T23:59:27.272Z,64.60
